Time;durP1;ratioP1;P1;durP2;ratioP2;P2;SDS_P1;SDS_P2;PMS_P1;PMS_P2;Temp;Humidity;BMP_temperature;BMP_pressure;BME280_temperature;BME280_humidity;BME280_pressure;Samples;Min_cycle;Max_cycle;Signal;HPM_P1;HPM_P2
2021/03/17 00:00:31;;;;;;;35.43;25.57;;;;;;;3.62;65.92;100223.63;123220;1105;104334;-81
2021/03/17 00:02:58;;;;;;;28.83;20.47;;;;;;;3.63;65.88;100220.13;123347;1105;104316;-82
2021/03/17 00:05:31;;;;;;;31.25;20.50;;;;;;;3.61;65.30;100228.03;123299;1105;104312;-82
2021/03/17 00:07:57;;;;;;;38.50;24.20;;;;;;;3.58;65.62;100227.15;123418;1105;104233;-82
2021/03/17 00:10:25;;;;;;;38.55;24.27;;;;;;;3.53;65.34;100227.13;123356;1105;104254;-85
2021/03/17 00:12:54;;;;;;;34.58;25.60;;;;;;;3.50;66.09;100237.67;123306;1105;104347;-84
2021/03/17 00:15:22;;;;;;;34.18;24.15;;;;;;;3.46;65.60;100233.30;123336;1106;104332;-85
2021/03/17 00:17:48;;;;;;;27.40;22.03;;;;;;;3.39;66.19;100227.15;123486;1105;104447;-84
2021/03/17 00:20:16;;;;;;;27.42;20.92;;;;;;;3.45;66.02;100234.16;123447;1105;105008;-84
2021/03/17 00:22:43;;;;;;;29.20;21.30;;;;;;;3.42;66.26;100235.03;123227;1104;104372;-82
2021/03/17 00:25:10;;;;;;;32.95;22.55;;;;;;;3.42;66.10;100231.54;123399;1105;104271;-87
2021/03/17 00:27:37;;;;;;;27.37;21.33;;;;;;;3.35;66.29;100225.39;123521;1105;104239;-82
2021/03/17 00:30:05;;;;;;;34.97;21.20;;;;;;;3.32;65.98;100228.91;123505;1105;104845;-86
2021/03/17 00:32:32;;;;;;;24.45;19.02;;;;;;;3.33;66.69;100225.40;123483;1105;104269;-82
2021/03/17 00:34:59;;;;;;;29.33;21.90;;;;;;;3.33;66.51;100216.61;123400;1105;104391;-81
2021/03/17 00:37:25;;;;;;;28.03;21.93;;;;;;;3.33;66.36;100225.40;123376;1105;104216;-86
2021/03/17 00:39:52;;;;;;;27.50;20.90;;;;;;;3.33;66.35;100217.50;123518;1105;104332;-80
2021/03/17 00:42:33;;;;;;;28.70;21.05;;;;;;;3.29;66.06;100220.12;123422;1105;104795;-83
2021/03/17 00:45:15;;;;;;;26.30;20.60;;;;;;;3.27;66.14;100235.91;123170;1109;104448;-82
2021/03/17 00:47:42;;;;;;;29.63;20.23;;;;;;;3.27;66.15;100221.89;123262;1109;104405;-83
2021/03/17 00:50:11;;;;;;;31.90;23.38;;;;;;;3.24;66.31;100220.13;123217;1109;104986;-82
2021/03/17 00:52:37;;;;;;;27.93;22.25;;;;;;;3.18;66.69;100231.50;123151;1109;104465;-81
2021/03/17 00:55:05;;;;;;;31.17;22.30;;;;;;;3.12;66.47;100227.98;123094;1109;104268;-82
2021/03/17 00:57:32;;;;;;;28.50;20.95;;;;;;;3.08;66.90;100223.60;123111;1109;104437;-83
2021/03/17 00:59:58;;;;;;;29.50;22.30;;;;;;;3.09;66.78;100233.26;123144;1109;104392;-82
2021/03/17 01:02:25;;;;;;;32.27;24.17;;;;;;;3.10;66.64;100235.89;123192;1109;104239;-89
2021/03/17 01:04:52;;;;;;;30.03;22.17;;;;;;;3.09;66.65;100239.42;123130;1108;104383;-81
2021/03/17 01:07:19;;;;;;;30.30;22.60;;;;;;;3.04;66.45;100238.53;123066;1109;104436;-81
2021/03/17 01:09:46;;;;;;;29.20;20.20;;;;;;;2.97;67.08;100231.48;123124;1109;104248;-84
2021/03/17 01:12:19;;;;;;;30.23;21.33;;;;;;;2.96;66.74;100242.87;123173;1109;104414;-82
2021/03/17 01:14:45;;;;;;;29.93;23.07;;;;;;;2.91;66.63;100240.24;123175;1109;104520;-82
2021/03/17 01:17:13;;;;;;;33.85;23.05;;;;;;;2.89;67.09;100231.45;123111;1109;105322;-81
2021/03/17 01:19:39;;;;;;;33.45;23.85;;;;;;;2.84;67.28;100234.09;123164;1109;104398;-80
2021/03/17 01:22:06;;;;;;;32.30;22.00;;;;;;;2.77;67.32;100232.33;123100;1109;104475;-81
2021/03/17 01:24:33;;;;;;;33.60;20.77;;;;;;;2.75;67.75;100233.20;123453;1105;104706;-81
2021/03/17 01:27:00;;;;;;;32.43;23.63;;;;;;;2.77;67.53;100236.69;123345;1106;104255;-82
2021/03/17 01:29:41;;;;;;;27.45;22.75;;;;;;;2.75;67.10;100234.06;123386;1105;104230;-81
2021/03/17 01:32:08;;;;;;;30.68;22.80;;;;;;;2.76;67.10;100227.94;123428;1105;104226;-84
2021/03/17 01:34:35;;;;;;;28.02;21.02;;;;;;;2.71;67.35;100234.93;123286;1105;104306;-81
2021/03/17 01:37:01;;;;;;;28.60;21.50;;;;;;;2.74;67.14;100232.30;123267;1106;104849;-81
2021/03/17 01:39:28;;;;;;;33.87;21.93;;;;;;;2.76;67.52;100235.83;123409;1105;104382;-81
2021/03/17 01:41:55;;;;;;;26.90;20.68;;;;;;;2.75;67.80;100225.31;123154;1105;104284;-81
2021/03/17 01:44:21;;;;;;;40.65;25.43;;;;;;;2.72;66.73;100239.33;123241;1105;105018;-82
2021/03/17 01:46:49;;;;;;;29.05;21.68;;;;;;;2.70;67.80;100234.93;123244;1105;104507;-83
2021/03/17 01:49:16;;;;;;;28.65;21.05;;;;;;;2.63;66.93;100234.03;123312;1105;104396;-79
2021/03/17 01:51:42;;;;;;;28.43;22.23;;;;;;;2.60;67.60;100234.90;123510;1105;104348;-82
2021/03/17 01:54:23;;;;;;;30.03;22.00;;;;;;;2.61;67.41;100236.66;123301;1105;104302;-82
2021/03/17 01:57:05;;;;;;;28.23;21.27;;;;;;;2.62;67.14;100229.64;123316;1105;105041;-80
2021/03/17 01:59:32;;;;;;;29.93;20.90;;;;;;;2.58;67.37;100233.14;123339;1105;104408;-81
2021/03/17 02:01:59;;;;;;;25.85;19.87;;;;;;;2.51;67.63;100235.73;123326;1105;104967;-83
2021/03/17 02:04:25;;;;;;;30.08;22.98;;;;;;;2.42;67.32;100227.80;123461;1105;104242;-82
2021/03/17 02:07:07;;;;;;;28.98;22.95;;;;;;;2.30;67.03;100235.64;123397;1105;104993;-81
2021/03/17 02:09:33;;;;;;;27.63;22.17;;;;;;;2.25;67.74;100242.62;123362;1105;105011;-82
2021/03/17 02:12:20;;;;;;;23.95;18.55;;;;;;;2.24;67.10;100243.48;123454;1105;104389;-80
2021/03/17 02:14:57;;;;;;;29.50;18.90;;;;;;;2.27;67.83;100240.89;123412;1105;104705;-84
2021/03/17 02:17:26;;;;;;;25.67;20.67;;;;;;;2.24;68.24;100238.23;123367;1105;104338;-81
2021/03/17 02:20:23;;;;;;;26.57;20.37;;;;;;;2.22;68.10;100245.24;123603;1106;104306;-82
2021/03/17 02:22:54;;;;;;;25.20;19.42;;;;;;;2.18;68.15;100241.71;123559;1104;104360;-81
2021/03/17 02:25:33;;;;;;;26.60;20.85;;;;;;;2.15;68.73;100237.31;123378;1105;104241;-81
2021/03/17 02:28:28;;;;;;;28.27;21.68;;;;;;;2.12;68.58;100236.41;123514;1105;104309;-82
2021/03/17 02:30:55;;;;;;;25.02;20.27;;;;;;;2.09;68.82;100236.41;123402;1105;104239;-81
2021/03/17 02:33:28;;;;;;;27.33;20.50;;;;;;;2.05;68.12;100240.75;123363;1105;104482;-80
2021/03/17 02:36:01;;;;;;;26.07;19.95;;;;;;;2.06;68.06;100232.02;123469;1105;104255;-81
2021/03/17 02:38:29;;;;;;;22.83;18.27;;;;;;;2.04;68.46;100236.40;123458;1105;104989;-81
2021/03/17 02:40:56;;;;;;;29.93;21.67;;;;;;;2.09;68.98;100236.41;123382;1105;104390;-83
2021/03/17 02:43:29;;;;;;;24.50;17.00;;;;;;;2.07;68.42;100239.03;123465;1106;104306;-82
2021/03/17 02:46:00;;;;;;;27.37;18.93;;;;;;;2.07;68.68;100244.28;123351;1105;104625;-83
2021/03/17 02:48:31;;;;;;;26.45;20.27;;;;;;;2.08;69.21;100242.52;123296;1105;104252;-85
2021/03/17 02:51:06;;;;;;;25.20;18.37;;;;;;;2.05;69.09;100246.01;123458;1105;104248;-84
2021/03/17 02:53:50;;;;;;;23.30;18.53;;;;;;;1.99;68.37;100238.11;123316;1106;105313;-83
2021/03/17 02:56:35;;;;;;;25.70;19.07;;;;;;;2.03;69.24;100237.26;123169;1106;104842;-81
2021/03/17 02:59:03;;;;;;;20.72;17.00;;;;;;;2.04;69.03;100238.13;123335;1106;104209;-81
2021/03/17 03:01:31;;;;;;;23.30;18.40;;;;;;;2.02;69.00;100251.25;123505;1104;104383;-84
2021/03/17 03:03:59;;;;;;;35.10;20.80;;;;;;;1.94;68.64;100253.83;123377;1105;105191;-81
2021/03/17 03:06:27;;;;;;;21.90;16.20;;;;;;;1.89;68.92;100249.42;123303;1105;104251;-82
2021/03/17 03:08:54;;;;;;;23.53;16.47;;;;;;;1.86;69.73;100247.65;123386;1105;104226;-83
2021/03/17 03:11:20;;;;;;;24.12;18.02;;;;;;;1.87;69.19;100246.78;123299;1105;104220;-85
2021/03/17 03:13:48;;;;;;;22.07;18.07;;;;;;;1.84;68.87;100252.03;123387;1105;104271;-81
2021/03/17 03:16:16;;;;;;;24.70;18.60;;;;;;;1.90;68.82;100248.55;123326;1105;104705;-82
2021/03/17 03:18:48;;;;;;;31.05;18.60;;;;;;;1.87;69.77;100252.04;123301;1105;104492;-83
2021/03/17 03:21:18;;;;;;;26.60;18.63;;;;;;;1.87;68.99;100257.30;123337;1106;104288;-83
2021/03/17 03:23:47;;;;;;;26.37;18.40;;;;;;;1.81;69.48;100254.61;123426;1105;104283;-82
2021/03/17 03:26:17;;;;;;;23.02;17.73;;;;;;;1.79;70.35;100265.11;123371;1105;104358;-82
2021/03/17 03:28:47;;;;;;;24.33;18.10;;;;;;;1.81;70.16;100267.73;123498;1105;104222;-84
2021/03/17 03:31:19;;;;;;;22.20;17.92;;;;;;;1.76;70.27;100261.57;123485;1106;104682;-82
2021/03/17 03:33:48;;;;;;;21.20;17.70;;;;;;;1.69;70.11;100262.41;123599;1105;104961;-81
2021/03/17 03:36:14;;;;;;;19.93;15.70;;;;;;;1.61;70.27;100260.61;123302;1105;104229;-83
2021/03/17 03:38:41;;;;;;;17.45;15.20;;;;;;;1.60;70.51;100264.09;123443;1105;104285;-82
2021/03/17 03:41:08;;;;;;;19.70;15.83;;;;;;;1.55;72.47;100275.44;123501;1105;105038;-82
2021/03/17 03:43:35;;;;;;;17.67;15.90;;;;;;;1.50;71.87;100270.13;123562;1105;104265;-83
2021/03/17 03:46:02;;;;;;;19.52;17.45;;;;;;;1.40;73.43;100271.80;123466;1105;104747;-82
2021/03/17 03:48:30;;;;;;;18.82;15.53;;;;;;;1.38;73.15;100276.14;123463;1105;104973;-81
2021/03/17 03:50:57;;;;;;;19.37;16.65;;;;;;;1.40;73.82;100282.30;123564;1105;104297;-84
2021/03/17 03:53:29;;;;;;;23.38;16.93;;;;;;;1.36;73.36;100284.86;123406;1105;104147;-83
2021/03/17 03:55:55;;;;;;;25.63;18.97;;;;;;;1.32;73.56;100279.59;123514;1105;104364;-82
2021/03/17 03:58:48;;;;;;;24.63;17.48;;;;;;;1.32;73.85;100282.22;123487;1105;104226;-83
2021/03/17 04:01:47;;;;;;;22.23;17.30;;;;;;;1.28;73.55;100283.06;123702;1105;104313;-84
2021/03/17 04:04:31;;;;;;;18.77;15.93;;;;;;;1.26;74.42;100290.02;123216;1108;104455;-83
2021/03/17 04:07:01;;;;;;;22.02;17.02;;;;;;;1.23;74.65;100284.75;123262;1109;104425;-81
2021/03/17 04:09:41;;;;;;;20.85;14.03;;;;;;;1.14;74.26;100300.41;123275;1109;104781;-90
2021/03/17 04:12:10;;;;;;;15.40;13.40;;;;;;;1.14;74.83;100310.89;123230;1109;104403;-82
2021/03/17 04:14:37;;;;;;;18.98;14.65;;;;;;;1.14;74.74;100309.13;123237;1109;104276;-82
2021/03/17 04:17:15;;;;;;;16.87;13.80;;;;;;;1.14;75.41;100296.02;123309;1108;104469;-82
2021/03/17 04:19:43;;;;;;;17.82;14.23;;;;;;;1.14;74.33;100313.52;123301;1109;104345;-81
2021/03/17 04:22:10;;;;;;;14.83;13.30;;;;;;;1.16;75.42;100310.05;123195;1109;105034;-82
2021/03/17 04:24:38;;;;;;;19.45;14.53;;;;;;;1.24;75.14;100306.61;123180;1109;104797;-82
2021/03/17 04:27:07;;;;;;;16.10;14.45;;;;;;;1.29;74.47;100304.92;123293;1107;104476;-86
2021/03/17 04:29:34;;;;;;;14.25;12.40;;;;;;;1.30;74.94;100307.55;123400;1105;104383;-81
2021/03/17 04:32:02;;;;;;;14.83;12.37;;;;;;;1.27;75.33;100304.04;123467;1105;104594;-82
2021/03/17 04:34:29;;;;;;;14.53;13.03;;;;;;;1.26;75.16;100305.77;123445;1106;104987;-81
2021/03/17 04:36:57;;;;;;;15.53;12.73;;;;;;;1.29;75.61;100304.92;123441;1106;104303;-81
2021/03/17 04:39:24;;;;;;;14.43;11.53;;;;;;;1.25;74.97;100303.13;123508;1105;104485;-87
2021/03/17 04:41:54;;;;;;;13.25;11.90;;;;;;;1.22;75.66;100303.11;123516;1105;104220;-85
2021/03/17 04:44:21;;;;;;;11.30;9.57;;;;;;;1.21;75.34;100314.46;123495;1105;104983;-82
2021/03/17 04:46:48;;;;;;;12.27;10.70;;;;;;;1.19;75.32;100311.83;123588;1105;104306;-81
2021/03/17 04:49:19;;;;;;;14.33;12.85;;;;;;;1.22;76.05;100313.60;123611;1105;104185;-82
2021/03/17 04:51:46;;;;;;;13.78;10.65;;;;;;;1.27;74.77;100323.27;123510;1105;104379;-82
2021/03/17 04:54:14;;;;;;;12.93;11.63;;;;;;;1.27;75.29;100320.65;123515;1105;104345;-83
2021/03/17 04:56:42;;;;;;;11.70;9.18;;;;;;;1.24;75.08;100314.48;123487;1105;104383;-82
2021/03/17 04:59:10;;;;;;;12.67;10.03;;;;;;;1.29;75.33;100316.31;123449;1105;104395;-84
2021/03/17 05:01:36;;;;;;;10.57;8.87;;;;;;;1.31;75.30;100322.44;123503;1105;104277;-84
2021/03/17 05:04:04;;;;;;;15.17;12.30;;;;;;;1.30;74.66;100318.05;123555;1105;104354;-83
2021/03/17 05:06:31;;;;;;;12.35;10.18;;;;;;;1.39;74.94;100324.28;123490;1106;104338;-84
2021/03/17 05:08:59;;;;;;;12.73;10.13;;;;;;;1.42;75.09;100330.41;123488;1105;104232;-82
2021/03/17 05:11:29;;;;;;;11.47;9.87;;;;;;;1.44;75.06;100328.70;123478;1105;104350;-84
2021/03/17 05:13:55;;;;;;;13.87;10.20;;;;;;;1.42;75.62;100329.55;123515;1105;104306;-85
2021/03/17 05:16:22;;;;;;;10.00;8.90;;;;;;;1.37;75.28;100334.73;123553;1105;104303;-82
2021/03/17 05:18:49;;;;;;;10.70;8.98;;;;;;;1.37;74.89;100339.11;123475;1105;105044;-83
2021/03/17 05:21:17;;;;;;;9.30;8.35;;;;;;;1.36;74.81;100343.49;123434;1105;104283;-84
2021/03/17 05:23:44;;;;;;;12.73;10.70;;;;;;;1.41;75.09;100343.52;123575;1105;104983;-83
2021/03/17 05:26:11;;;;;;;11.23;10.03;;;;;;;1.48;74.76;100340.08;123592;1105;104271;-84
2021/03/17 05:28:42;;;;;;;10.27;9.00;;;;;;;1.53;75.09;100342.77;123518;1105;104414;-85
2021/03/17 05:31:09;;;;;;;10.73;9.70;;;;;;;1.54;74.37;100342.77;123440;1105;104149;-82
2021/03/17 05:33:36;;;;;;;14.53;10.70;;;;;;;1.56;75.09;100348.03;123467;1106;104272;-83
2021/03/17 05:36:03;;;;;;;14.53;9.27;;;;;;;1.58;75.15;100346.31;123464;1105;104409;-83
2021/03/17 05:38:30;;;;;;;13.93;12.30;;;;;;;1.56;74.29;100348.03;123467;1105;104443;-81
2021/03/17 05:40:57;;;;;;;11.70;10.30;;;;;;;1.61;74.12;100352.48;123416;1105;104222;-82
2021/03/17 05:43:23;;;;;;;10.53;9.50;;;;;;;1.59;74.79;100358.59;123573;1105;104321;-84
2021/03/17 05:45:51;;;;;;;10.25;9.23;;;;;;;1.59;74.18;100348.09;123509;1105;104281;-82
2021/03/17 05:48:18;;;;;;;12.65;10.50;;;;;;;1.58;74.63;100354.19;123478;1105;104313;-82
2021/03/17 05:50:45;;;;;;;11.33;9.07;;;;;;;1.57;74.84;100361.16;123296;1105;104734;-86
2021/03/17 05:53:11;;;;;;;11.28;9.33;;;;;;;1.61;73.69;100357.73;123060;1105;104594;-82
2021/03/17 05:55:38;;;;;;;13.67;10.43;;;;;;;1.68;73.85;100361.30;122959;1105;104301;-82
2021/03/17 05:58:04;;;;;;;9.48;8.43;;;;;;;1.64;74.12;100356.86;122864;1105;104338;-83
2021/03/17 06:00:32;;;;;;;12.30;10.03;;;;;;;1.62;74.32;100355.98;122904;1105;104300;-81
2021/03/17 06:03:02;;;;;;;13.67;8.77;;;;;;;1.62;73.94;100362.09;122881;1105;104996;-86
2021/03/17 06:05:29;;;;;;;11.05;9.75;;;;;;;1.69;73.58;100365.66;122908;1106;104300;-83
2021/03/17 06:08:13;;;;;;;11.40;9.28;;;;;;;1.67;73.80;100367.41;122822;1105;104721;-84
2021/03/17 06:10:40;;;;;;;11.97;9.30;;;;;;;1.70;73.70;100359.55;122961;1105;104364;-87
2021/03/17 06:13:14;;;;;;;11.05;9.95;;;;;;;1.74;73.65;100363.96;123585;1105;104996;-83
2021/03/17 06:15:51;;;;;;;13.22;11.15;;;;;;;1.77;73.64;100373.61;123496;1105;104204;-82
2021/03/17 06:18:30;;;;;;;15.53;10.55;;;;;;;1.75;73.70;100375.36;123531;1105;104299;-82
2021/03/17 06:20:58;;;;;;;13.77;11.03;;;;;;;1.70;73.95;100380.55;123514;1104;104373;-80
2021/03/17 06:23:24;;;;;;;12.63;11.40;;;;;;;1.72;74.43;100380.56;123522;1105;104286;-82
2021/03/17 06:25:51;;;;;;;15.20;10.27;;;;;;;1.70;73.59;100385.80;123397;1105;104236;-81
2021/03/17 06:28:17;;;;;;;12.43;10.63;;;;;;;1.79;74.28;100385.02;123393;1105;105013;-83
2021/03/17 06:30:47;;;;;;;14.28;11.97;;;;;;;1.80;74.36;100387.66;123399;1105;104181;-82
2021/03/17 06:33:14;;;;;;;15.80;13.70;;;;;;;1.83;73.69;100392.06;123451;1105;104906;-82
2021/03/17 06:35:40;;;;;;;17.30;13.83;;;;;;;1.92;73.98;100388.62;123579;1106;104995;-81
2021/03/17 06:38:19;;;;;;;17.63;12.87;;;;;;;1.96;73.46;100391.30;123303;1105;104325;-81
2021/03/17 06:40:58;;;;;;;13.55;10.53;;;;;;;2.04;73.42;100399.25;123490;1105;104226;-85
2021/03/17 06:43:50;;;;;;;12.20;10.65;;;;;;;2.11;73.97;100394.93;123418;1105;104315;-81
2021/03/17 06:46:19;;;;;;;14.00;11.55;;;;;;;2.11;74.02;100395.80;123384;1106;104313;-83
2021/03/17 06:48:58;;;;;;;12.33;11.03;;;;;;;2.12;73.86;100392.31;123309;1105;104299;-83
2021/03/17 06:51:39;;;;;;;20.33;11.93;;;;;;;2.23;74.57;100394.16;123102;1108;104875;-88
2021/03/17 06:54:09;;;;;;;18.83;14.77;;;;;;;2.26;74.40;100396.79;123153;1109;104507;-84
2021/03/17 06:56:38;;;;;;;23.15;14.20;;;;;;;2.28;73.69;100393.31;123235;1109;105056;-84
2021/03/17 06:59:07;;;;;;;20.97;15.13;;;;;;;2.24;73.46;100393.26;123326;1109;104392;-86
2021/03/17 07:01:42;;;;;;;20.10;14.50;;;;;;;2.27;73.87;100398.56;123218;1109;104759;-82
2021/03/17 07:04:12;;;;;;;22.17;14.40;;;;;;;2.30;74.03;100403.83;123250;1109;105117;-84
2021/03/17 07:06:48;;;;;;;18.32;11.73;;;;;;;2.34;73.96;100393.33;123705;1109;104313;-83
2021/03/17 07:09:30;;;;;;;22.75;13.50;;;;;;;2.38;72.98;100404.75;123130;1109;104395;-85
2021/03/17 07:12:12;;;;;;;18.40;12.17;;;;;;;2.38;74.00;100404.75;123107;1109;104417;-83
2021/03/17 07:14:43;;;;;;;20.63;14.20;;;;;;;2.44;73.81;100404.81;123163;1109;105678;-86
2021/03/17 07:17:27;;;;;;;15.63;14.00;;;;;;;2.54;73.71;100412.77;123126;1109;104957;-83
2021/03/17 07:19:53;;;;;;;20.55;14.20;;;;;;;2.61;73.57;100411.92;123153;1109;104373;-82
2021/03/17 07:22:20;;;;;;;18.67;14.00;;;;;;;2.66;73.05;100411.06;123208;1109;104441;-82
2021/03/17 07:24:52;;;;;;;17.30;13.90;;;;;;;2.69;73.35;100415.47;123182;1109;105362;-82
2021/03/17 07:27:24;;;;;;;16.75;13.32;;;;;;;2.68;73.46;100411.11;123265;1109;105087;-89
2021/03/17 07:30:03;;;;;;;19.63;15.87;;;;;;;2.76;73.67;100416.39;123372;1105;104411;-83
2021/03/17 07:33:03;;;;;;;34.58;16.25;;;;;;;2.75;73.35;100410.26;123483;1105;104626;-86
2021/03/17 07:35:36;;;;;;;20.05;15.68;;;;;;;2.72;73.40;100410.25;123733;1105;104237;-81
2021/03/17 07:38:11;;;;;;;21.30;14.98;;;;;;;2.70;73.43;100409.34;123413;1105;104345;-82
2021/03/17 07:40:44;;;;;;;16.77;13.88;;;;;;;2.73;73.73;100411.98;123440;1105;104255;-81
2021/03/17 07:43:13;;;;;;;25.20;16.50;;;;;;;2.77;73.33;100408.53;123345;1106;104315;-82
2021/03/17 07:45:40;;;;;;;19.67;15.30;;;;;;;2.80;72.91;100411.17;123472;1105;104313;-83
2021/03/17 07:48:12;;;;;;;18.73;16.13;;;;;;;2.83;73.19;100405.91;123405;1105;104443;-83
2021/03/17 07:50:42;;;;;;;22.25;15.30;;;;;;;2.85;73.27;100411.17;123515;1105;104348;-83
2021/03/17 07:53:26;;;;;;;17.15;14.65;;;;;;;2.87;72.90;100411.21;123597;1105;104326;-86
2021/03/17 07:55:57;;;;;;;23.23;15.87;;;;;;;2.86;73.36;100417.34;123529;1105;104766;-83
2021/03/17 07:58:23;;;;;;;21.83;15.63;;;;;;;2.83;72.79;100412.94;123483;1105;104284;-82
2021/03/17 08:00:52;;;;;;;20.43;16.07;;;;;;;2.82;73.42;100411.17;123422;1105;104509;-82
2021/03/17 08:03:20;;;;;;;18.57;13.87;;;;;;;2.85;72.82;100419.06;123303;1105;104344;-86
2021/03/17 08:05:47;;;;;;;18.80;15.53;;;;;;;2.87;73.54;100408.59;123461;1105;104235;-81
2021/03/17 08:08:15;;;;;;;16.47;14.50;;;;;;;2.91;73.61;100418.25;123431;1106;104360;-87
2021/03/17 08:10:43;;;;;;;19.80;15.77;;;;;;;2.92;73.27;100415.63;123354;1105;104232;-85
2021/03/17 08:13:13;;;;;;;15.40;13.00;;;;;;;2.95;73.85;100420.02;123405;1105;104457;-82
2021/03/17 08:15:43;;;;;;;14.20;12.53;;;;;;;2.96;73.10;100422.65;123401;1105;104466;-82
2021/03/17 08:18:34;;;;;;;15.67;12.90;;;;;;;3.01;73.75;100415.66;123529;1105;104258;-85
2021/03/17 08:21:04;;;;;;;15.57;13.20;;;;;;;3.13;72.82;100420.11;123316;1105;104255;-84
2021/03/17 08:23:47;;;;;;;16.00;13.60;;;;;;;3.14;73.15;100419.21;123300;1105;105140;-82
2021/03/17 08:26:36;;;;;;;14.53;10.77;;;;;;;3.14;73.31;100419.21;123481;1105;104191;-88
2021/03/17 08:29:17;;;;;;;13.88;10.38;;;;;;;3.16;72.53;100420.11;123105;1109;104422;-84
2021/03/17 08:31:48;;;;;;;16.50;11.63;;;;;;;3.17;72.77;100421.88;123247;1108;104332;-85
2021/03/17 08:34:20;;;;;;;11.80;9.53;;;;;;;3.22;72.47;100424.52;123383;1106;104424;-86
2021/03/17 08:36:47;;;;;;;16.23;9.03;;;;;;;3.30;71.67;100428.05;123399;1105;104281;-85
2021/03/17 08:39:32;;;;;;;13.80;10.23;;;;;;;3.32;71.46;100417.55;123508;1105;104875;-86
2021/03/17 08:42:00;;;;;;;10.63;9.00;;;;;;;3.33;71.50;100420.19;123372;1105;104399;-82
2021/03/17 08:44:29;;;;;;;10.27;8.43;;;;;;;3.28;71.17;100418.39;123409;1105;104344;-83
2021/03/17 08:47:15;;;;;;;12.30;8.53;;;;;;;3.27;71.64;100416.66;123405;1105;104450;-84
2021/03/17 08:49:43;;;;;;;12.18;8.78;;;;;;;3.34;71.91;100418.42;123358;1105;104357;-81
2021/03/17 08:52:18;;;;;;;10.27;9.00;;;;;;;3.45;71.87;100414.09;123252;1105;104376;-83
2021/03/17 08:54:56;;;;;;;12.50;8.87;;;;;;;3.51;71.42;100423.75;123327;1105;104373;-83
2021/03/17 08:57:23;;;;;;;16.23;10.20;;;;;;;3.56;70.70;100419.38;123325;1105;104393;-87
2021/03/17 08:59:56;;;;;;;10.30;8.50;;;;;;;3.57;70.86;100415.84;123098;1105;104255;-83
2021/03/17 09:02:25;;;;;;;10.75;9.10;;;;;;;3.62;70.21;100415.88;122909;1106;104252;-82
2021/03/17 09:04:56;;;;;;;11.20;9.40;;;;;;;3.67;70.24;100416.77;122811;1105;104444;-82
2021/03/17 09:07:26;;;;;;;12.20;10.18;;;;;;;3.76;70.13;100413.25;122806;1106;104255;-82
2021/03/17 09:10:13;;;;;;;10.98;7.90;;;;;;;3.81;70.00;100415.05;123052;1105;104399;-81
2021/03/17 09:12:43;;;;;;;10.83;7.63;;;;;;;3.83;69.62;100420.31;122849;1105;104340;-81
2021/03/17 09:15:09;;;;;;;11.18;8.75;;;;;;;3.98;69.91;100420.31;122782;1106;104296;-82
2021/03/17 09:17:50;;;;;;;11.73;10.33;;;;;;;4.11;69.49;100418.57;122782;1105;104354;-83
2021/03/17 09:20:30;;;;;;;9.30;8.17;;;;;;;4.23;68.75;100416.83;122867;1105;104297;-82
2021/03/17 09:23:15;;;;;;;16.07;8.95;;;;;;;4.31;68.38;100415.94;122843;1105;104316;-83
2021/03/17 09:26:01;;;;;;;11.40;8.50;;;;;;;4.37;68.91;100411.54;122833;1105;104357;-82
2021/03/17 09:28:29;;;;;;;8.13;7.10;;;;;;;4.39;68.08;100415.94;122779;1105;104271;-83
2021/03/17 09:31:07;;;;;;;10.25;8.43;;;;;;;4.38;67.79;100423.85;122752;1105;104447;-83
2021/03/17 09:33:35;;;;;;;9.28;8.38;;;;;;;4.51;67.61;100418.55;123334;1105;105693;-87
2021/03/17 09:36:07;;;;;;;11.83;9.40;;;;;;;4.54;67.00;100422.95;123559;1105;104249;-82
2021/03/17 09:38:40;;;;;;;11.43;9.13;;;;;;;4.55;66.99;100419.44;123540;1105;104836;-82
2021/03/17 09:41:15;;;;;;;11.27;9.90;;;;;;;4.61;67.65;100424.72;123771;1105;105015;-82
2021/03/17 09:44:21;;;;;;;11.50;10.30;;;;;;;4.68;66.53;100421.17;123554;1106;104389;-82
2021/03/17 09:46:51;;;;;;;8.60;7.20;;;;;;;4.60;66.47;100414.14;123455;1105;104303;-84
2021/03/17 09:49:26;;;;;;;18.02;13.95;;;;;;;4.65;65.57;100423.83;123501;1105;105034;-85
2021/03/17 09:51:58;;;;;;;11.77;8.40;;;;;;;4.77;66.35;100416.75;123552;1105;104175;-84
2021/03/17 09:54:28;;;;;;;13.10;8.83;;;;;;;4.79;66.72;100420.28;123463;1105;104869;-82
2021/03/17 09:57:05;;;;;;;12.50;9.15;;;;;;;4.88;66.55;100424.64;123444;1105;104437;-84
2021/03/17 09:59:42;;;;;;;8.35;7.55;;;;;;;4.90;65.84;100428.16;123498;1105;104665;-85
2021/03/17 10:02:26;;;;;;;10.73;8.00;;;;;;;4.79;65.57;100421.14;123245;1109;105015;-83
2021/03/17 10:04:56;;;;;;;9.77;8.43;;;;;;;4.76;65.88;100425.54;123122;1109;104421;-83
2021/03/17 10:07:37;;;;;;;10.28;7.70;;;;;;;4.78;65.63;100431.70;122876;1108;104459;-83
2021/03/17 10:10:09;;;;;;;8.55;7.10;;;;;;;4.73;65.87;100422.92;122700;1109;104520;-83
2021/03/17 10:12:35;;;;;;;17.82;9.10;;;;;;;4.77;65.88;100428.20;122661;1109;104492;-82
2021/03/17 10:15:13;;;;;;;14.43;8.13;;;;;;;4.81;65.79;100434.33;122644;1109;104422;-83
2021/03/17 10:17:40;;;;;;;9.37;7.60;;;;;;;4.85;65.48;100438.71;122641;1107;104560;-85
2021/03/17 10:20:15;;;;;;;11.60;8.53;;;;;;;4.89;65.48;100436.95;122551;1108;104621;-82
2021/03/17 10:22:44;;;;;;;9.90;8.60;;;;;;;4.85;65.06;100434.33;122821;1109;104338;-84
2021/03/17 10:25:19;;;;;;;11.53;8.00;;;;;;;4.87;65.33;100434.33;124941;1109;102981;-87
2021/03/17 10:27:52;;;;;;;8.83;7.30;;;;;;;4.87;64.67;100441.38;124915;1109;104771;-85
2021/03/17 10:30:30;;;;;;;10.70;8.88;;;;;;;4.79;65.18;100431.70;125140;1109;104431;-92
2021/03/17 10:33:01;;;;;;;14.35;9.53;;;;;;;4.85;64.94;100436.08;124824;1109;104319;-84
2021/03/17 10:35:30;;;;;;;10.63;8.40;;;;;;;4.89;64.68;100440.46;124399;1109;104608;-83
2021/03/17 10:37:59;;;;;;;9.93;8.13;;;;;;;4.98;64.50;100429.87;123255;1109;105063;-83
2021/03/17 10:40:51;;;;;;;10.78;9.13;;;;;;;5.01;64.11;100437.81;123348;1105;104313;-83
2021/03/17 10:43:18;;;;;;;18.33;11.83;;;;;;;5.01;64.09;100444.83;123600;1105;104294;-83
2021/03/17 10:45:50;;;;;;;9.80;7.80;;;;;;;4.96;63.80;100431.66;123579;1106;104325;-80
2021/03/17 10:48:32;;;;;;;10.77;8.00;;;;;;;4.94;64.55;100427.27;123529;1105;104578;-81
2021/03/17 10:51:12;;;;;;;12.13;9.68;;;;;;;4.92;64.53;100435.20;123558;1105;104749;-81
2021/03/17 10:53:44;;;;;;;10.57;7.43;;;;;;;4.88;64.80;100436.09;123674;1105;104660;-85
2021/03/17 10:56:15;;;;;;;9.95;8.95;;;;;;;4.81;64.73;100432.59;123803;1105;104312;-83
2021/03/17 10:58:56;;;;;;;8.88;7.65;;;;;;;4.84;64.58;100434.34;123533;1105;105405;-91
2021/03/17 11:01:23;;;;;;;15.03;8.65;;;;;;;4.85;64.73;100441.35;123647;1105;104845;-90
2021/03/17 11:04:06;;;;;;;9.57;8.53;;;;;;;4.83;64.69;100427.30;123811;1105;104245;-82
2021/03/17 11:06:33;;;;;;;8.55;7.05;;;;;;;4.80;64.76;100436.09;123502;1105;104256;-82
2021/03/17 11:09:04;;;;;;;15.00;8.78;;;;;;;4.77;64.66;100440.49;123500;1105;104996;-82
2021/03/17 11:11:33;;;;;;;12.68;10.23;;;;;;;4.79;64.70;100444.03;123738;1105;104444;-82
2021/03/17 11:13:59;;;;;;;20.97;9.03;;;;;;;4.83;64.56;100441.36;123517;1105;104158;-82
2021/03/17 11:16:32;;;;;;;17.35;9.55;;;;;;;4.88;64.72;100446.64;123532;1104;104312;-83
2021/03/17 11:19:00;;;;;;;9.80;7.90;;;;;;;4.87;64.56;100431.69;123522;1105;104348;-83
2021/03/17 11:21:30;;;;;;;15.93;9.60;;;;;;;4.94;64.56;100435.19;123403;1105;104351;-81
2021/03/17 11:23:58;;;;;;;12.80;7.83;;;;;;;4.95;63.84;100424.63;123572;1105;104651;-83